Time;durP1;ratioP1;P1;durP2;ratioP2;P2;SDS_P1;SDS_P2;PMS_P1;PMS_P2;Temp;Humidity;BMP_temperature;BMP_pressure;BME280_temperature;BME280_humidity;BME280_pressure;Samples;Min_cycle;Max_cycle;Signal;HPM_P1;HPM_P2
2023/05/16 00:01:28;;;;;;;15.25;3.15;;;9.20;99.90;;;;;;5015613;28;20033;-73
2023/05/16 00:03:55;;;;;;;16.42;3.75;;;9.20;99.90;;;;;;5018875;28;20062;-73
2023/05/16 00:06:21;;;;;;;20.58;4.00;;;9.20;99.90;;;;;;5027829;28;20018;-73
2023/05/16 00:08:47;;;;;;;16.17;3.13;;;9.20;99.90;;;;;;5018987;28;20049;-74
2023/05/16 00:11:13;;;;;;;14.20;3.28;;;9.20;99.90;;;;;;5032383;28;20073;-73
2023/05/16 00:13:41;;;;;;;16.42;2.63;;;9.20;99.90;;;;;;5032481;28;20079;-75
2023/05/16 00:16:07;;;;;;;13.80;2.65;;;9.20;99.90;;;;;;5026482;28;20021;-73
2023/05/16 00:18:36;;;;;;;14.88;2.58;;;9.20;99.90;;;;;;5012462;28;20053;-73
2023/05/16 00:21:04;;;;;;;15.00;2.30;;;9.20;99.90;;;;;;5021846;28;20470;-75
2023/05/16 00:23:30;;;;;;;17.55;2.58;;;9.20;99.90;;;;;;5018237;28;20041;-74
2023/05/16 00:25:56;;;;;;;14.68;2.85;;;9.20;99.90;;;;;;5028721;28;20026;-73
2023/05/16 00:28:22;;;;;;;18.67;4.07;;;9.20;99.90;;;;;;5021782;28;20037;-75
2023/05/16 00:30:47;;;;;;;15.55;3.08;;;9.20;99.90;;;;;;5045303;28;20037;-73
2023/05/16 00:33:13;;;;;;;14.27;2.45;;;9.20;99.90;;;;;;5026407;28;20030;-76
2023/05/16 00:35:38;;;;;;;14.15;2.75;;;9.30;99.90;;;;;;5022051;28;20038;-74
2023/05/16 00:38:05;;;;;;;15.25;2.58;;;9.30;99.90;;;;;;5018241;28;20057;-74
2023/05/16 00:40:31;;;;;;;18.17;2.70;;;9.20;99.90;;;;;;5026590;28;20065;-74
2023/05/16 00:42:56;;;;;;;17.27;3.75;;;9.30;99.90;;;;;;5021224;28;20393;-73
2023/05/16 00:45:22;;;;;;;17.55;3.00;;;9.20;99.90;;;;;;5019374;28;20032;-74
2023/05/16 00:47:48;;;;;;;19.30;3.95;;;9.30;99.90;;;;;;5027500;28;20045;-77
2023/05/16 00:50:14;;;;;;;19.77;3.58;;;9.30;99.90;;;;;;5014217;28;20458;-74
2023/05/16 00:52:40;;;;;;;14.98;3.75;;;9.20;99.90;;;;;;5006681;28;20101;-77
2023/05/16 00:55:06;;;;;;;13.63;2.88;;;9.30;99.90;;;;;;5036552;28;20156;-75
2023/05/16 00:57:32;;;;;;;20.40;3.38;;;9.30;99.90;;;;;;5024293;28;20037;-72
2023/05/16 00:59:58;;;;;;;18.27;3.47;;;9.30;99.90;;;;;;5021733;28;20033;-73
2023/05/16 01:02:27;;;;;;;15.00;3.20;;;9.30;99.90;;;;;;5019134;28;20025;-72
2023/05/16 01:04:53;;;;;;;15.40;3.30;;;9.30;99.90;;;;;;5020460;28;20045;-73
2023/05/16 01:07:19;;;;;;;17.05;3.03;;;9.40;99.90;;;;;;5020439;28;20046;-73
2023/05/16 01:09:45;;;;;;;13.55;3.13;;;9.50;99.90;;;;;;5027523;28;20504;-73
2023/05/16 01:12:37;;;;;;;19.30;3.45;;;9.50;99.90;;;;;;5015014;28;20041;-73
2023/05/16 01:15:14;;;;;;;17.20;3.67;;;9.50;99.90;;;;;;5029971;28;20488;-72
2023/05/16 01:18:02;;;;;;;16.25;3.38;;;9.50;99.90;;;;;;5016475;28;20462;-71
2023/05/16 01:20:40;;;;;;;11.50;2.25;;;9.50;99.90;;;;;;5009680;28;20393;-73
2023/05/16 01:23:33;;;;;;;13.20;2.22;;;9.50;99.90;;;;;;5014871;28;20033;-73
2023/05/16 01:26:21;;;;;;;15.18;2.35;;;9.50;99.90;;;;;;5012635;28;20029;-75
2023/05/16 01:28:49;;;;;;;18.08;3.85;;;9.50;99.90;;;;;;5025666;28;20099;-75
2023/05/16 01:31:15;;;;;;;15.23;2.67;;;9.60;99.90;;;;;;5019006;28;20053;-73
2023/05/16 01:33:41;;;;;;;15.80;2.90;;;9.60;99.90;;;;;;5031376;28;20026;-77
2023/05/16 01:36:40;;;;;;;16.02;3.83;;;9.60;99.90;;;;;;5014843;28;20088;-73
2023/05/16 01:39:35;;;;;;;22.58;3.15;;;9.60;99.90;;;;;;5028311;28;20119;-76
2023/05/16 01:42:13;;;;;;;19.20;3.45;;;9.50;99.90;;;;;;5020983;28;20041;-74
2023/05/16 01:44:41;;;;;;;13.07;2.55;;;9.50;99.90;;;;;;5029036;28;20029;-75
2023/05/16 01:47:11;;;;;;;15.25;2.65;;;9.50;99.90;;;;;;5026348;28;20148;-74
2023/05/16 01:50:00;;;;;;;13.70;2.85;;;9.40;99.90;;;;;;5025654;28;20057;-77
2023/05/16 01:52:58;;;;;;;17.27;3.28;;;9.30;99.90;;;;;;5011114;28;20128;-74
2023/05/16 01:55:54;;;;;;;17.73;3.67;;;9.30;99.90;;;;;;5012030;28;20405;-73
2023/05/16 01:58:23;;;;;;;15.50;3.42;;;9.30;99.90;;;;;;5022164;28;20038;-75
2023/05/16 02:00:51;;;;;;;13.77;2.67;;;9.30;99.90;;;;;;5035412;28;20080;-73
2023/05/16 02:03:17;;;;;;;19.48;3.28;;;9.30;99.90;;;;;;5022497;28;20121;-73
2023/05/16 02:05:43;;;;;;;19.70;3.35;;;9.40;99.90;;;;;;5022327;28;20025;-74
2023/05/16 02:08:08;;;;;;;16.23;2.65;;;9.40;99.90;;;;;;5013880;28;20046;-73
2023/05/16 02:10:34;;;;;;;18.25;3.22;;;9.50;99.90;;;;;;5014320;28;20052;-73
2023/05/16 02:12:59;;;;;;;17.90;3.35;;;9.60;99.90;;;;;;5014213;28;20029;-77
2023/05/16 02:15:25;;;;;;;16.05;3.90;;;9.60;99.90;;;;;;5029737;28;20044;-74
2023/05/16 02:17:51;;;;;;;14.13;3.13;;;9.60;99.90;;;;;;5015284;28;20033;-73
2023/05/16 02:20:16;;;;;;;22.35;4.35;;;9.60;99.90;;;;;;5014851;28;20072;-73
2023/05/16 02:22:43;;;;;;;23.25;3.75;;;9.60;99.90;;;;;;5014726;28;20057;-76
2023/05/16 02:25:09;;;;;;;18.75;3.08;;;9.50;99.90;;;;;;5014527;28;20513;-74
2023/05/16 02:27:35;;;;;;;15.75;3.78;;;9.50;99.90;;;;;;5013217;28;20046;-73
2023/05/16 02:30:01;;;;;;;23.33;4.32;;;9.50;99.90;;;;;;5014551;28;20438;-72
2023/05/16 02:32:26;;;;;;;13.68;3.58;;;9.60;99.90;;;;;;5014409;28;20033;-73
2023/05/16 02:34:52;;;;;;;17.48;3.22;;;9.60;99.90;;;;;;5015146;28;20041;-73
2023/05/16 02:37:18;;;;;;;14.60;3.05;;;9.60;99.90;;;;;;5014757;28;20038;-76
2023/05/16 02:39:43;;;;;;;12.30;2.92;;;9.70;99.90;;;;;;5014153;28;20085;-76
2023/05/16 02:42:09;;;;;;;19.17;2.67;;;9.70;99.90;;;;;;5014465;28;20037;-75
2023/05/16 02:44:37;;;;;;;13.10;3.08;;;9.70;99.90;;;;;;5010049;28;20401;-76
2023/05/16 02:47:03;;;;;;;13.18;2.78;;;9.80;99.90;;;;;;5007313;28;20469;-74
2023/05/16 02:49:28;;;;;;;10.80;2.30;;;9.80;99.90;;;;;;5009485;28;20073;-74
2023/05/16 02:51:54;;;;;;;21.60;4.15;;;9.70;99.90;;;;;;5004829;28;20650;-75
2023/05/16 02:54:19;;;;;;;17.42;3.92;;;9.70;99.90;;;;;;5005667;28;20029;-71
2023/05/16 02:56:45;;;;;;;19.60;2.75;;;9.70;99.90;;;;;;5014792;28;20378;-73
2023/05/16 02:59:11;;;;;;;16.58;2.92;;;9.70;99.90;;;;;;5014307;28;20056;-77
2023/05/16 03:01:36;;;;;;;13.15;2.08;;;9.70;99.90;;;;;;5013006;28;20113;-74
2023/05/16 03:04:02;;;;;;;14.18;2.10;;;9.70;99.90;;;;;;5014652;28;20075;-77
2023/05/16 03:06:29;;;;;;;11.85;2.25;;;9.60;99.90;;;;;;5012944;28;20034;-74
2023/05/16 03:08:54;;;;;;;11.65;2.63;;;9.60;99.90;;;;;;5014654;28;20034;-76
2023/05/16 03:11:21;;;;;;;17.80;3.00;;;9.60;99.90;;;;;;5014129;28;20045;-76
2023/05/16 03:13:47;;;;;;;8.02;2.00;;;9.60;99.90;;;;;;5013672;28;20080;-73
2023/05/16 03:16:12;;;;;;;16.02;2.75;;;9.70;99.90;;;;;;5014038;28;20026;-74
2023/05/16 03:18:38;;;;;;;11.65;2.10;;;9.70;99.90;;;;;;5014269;28;20126;-73
2023/05/16 03:21:04;;;;;;;12.57;2.20;;;9.80;99.90;;;;;;5013406;28;20034;-73
2023/05/16 03:23:29;;;;;;;15.05;2.25;;;9.80;99.90;;;;;;5013357;28;20029;-74
2023/05/16 03:25:55;;;;;;;9.43;1.98;;;9.90;99.90;;;;;;5013614;28;20030;-74
2023/05/16 03:28:21;;;;;;;12.15;1.80;;;9.90;99.90;;;;;;5013861;28;20037;-73
2023/05/16 03:30:46;;;;;;;14.02;2.67;;;10.00;99.90;;;;;;5013539;28;20034;-73
2023/05/16 03:33:12;;;;;;;10.77;2.45;;;10.00;99.90;;;;;;5013620;28;20088;-73
2023/05/16 03:35:38;;;;;;;13.15;2.05;;;9.90;99.90;;;;;;5014113;28;20122;-73
2023/05/16 03:38:04;;;;;;;8.20;1.65;;;9.80;99.90;;;;;;5013461;28;20026;-73
2023/05/16 03:40:30;;;;;;;14.57;1.80;;;9.80;99.90;;;;;;5012895;28;20048;-73
2023/05/16 03:42:55;;;;;;;8.80;2.20;;;9.80;99.90;;;;;;5013451;28;20057;-74
2023/05/16 03:45:21;;;;;;;10.98;1.88;;;9.70;99.90;;;;;;5013548;28;20474;-73
2023/05/16 03:47:48;;;;;;;12.65;2.65;;;9.70;99.90;;;;;;5013357;28;20053;-75
2023/05/16 03:50:14;;;;;;;13.30;2.17;;;9.60;99.90;;;;;;5013650;28;20135;-72
2023/05/16 03:52:40;;;;;;;11.82;2.10;;;9.60;99.90;;;;;;5012930;28;20180;-73
2023/05/16 03:55:06;;;;;;;8.65;1.92;;;9.70;99.90;;;;;;5012908;28;20530;-74
2023/05/16 03:57:32;;;;;;;12.00;1.95;;;9.60;99.90;;;;;;5012745;28;20120;-73
2023/05/16 03:59:58;;;;;;;10.73;2.00;;;9.60;99.90;;;;;;5011177;28;20038;-76
2023/05/16 04:02:24;;;;;;;11.20;1.95;;;9.60;99.90;;;;;;5012202;28;20168;-72
2023/05/16 04:04:50;;;;;;;7.32;1.45;;;9.70;99.90;;;;;;5012879;28;20033;-73
2023/05/16 04:07:15;;;;;;;8.02;1.90;;;9.80;99.90;;;;;;5012414;28;20049;-73
2023/05/16 04:09:41;;;;;;;15.30;2.10;;;9.80;99.90;;;;;;5012534;28;20033;-74
2023/05/16 04:12:07;;;;;;;10.48;1.90;;;9.90;99.90;;;;;;5013716;28;20060;-74
2023/05/16 04:14:33;;;;;;;11.52;2.20;;;10.00;99.90;;;;;;5011467;28;20109;-74
2023/05/16 04:16:59;;;;;;;11.63;1.85;;;10.10;99.90;;;;;;5013531;28;20030;-73
2023/05/16 04:19:25;;;;;;;9.23;1.67;;;10.20;99.90;;;;;;5013454;28;20034;-73
2023/05/16 04:21:51;;;;;;;17.27;2.55;;;10.20;99.90;;;;;;5012888;28;20034;-75
2023/05/16 04:24:16;;;;;;;12.73;2.33;;;10.30;99.90;;;;;;5028159;28;20018;-74
2023/05/16 04:26:42;;;;;;;12.05;2.17;;;10.20;99.90;;;;;;5013075;28;20028;-76
2023/05/16 04:29:08;;;;;;;9.20;2.08;;;10.20;99.90;;;;;;5012649;28;20690;-75
2023/05/16 04:31:33;;;;;;;13.07;1.80;;;10.20;99.90;;;;;;5012780;28;20030;-76
2023/05/16 04:34:00;;;;;;;14.25;2.38;;;10.20;99.90;;;;;;5013231;28;20106;-76
2023/05/16 04:36:28;;;;;;;12.90;2.15;;;10.30;99.90;;;;;;5012107;28;20104;-73
2023/05/16 04:38:55;;;;;;;13.43;3.13;;;10.30;99.90;;;;;;5012397;28;20050;-73
2023/05/16 04:41:21;;;;;;;11.48;2.03;;;10.30;99.90;;;;;;5026590;28;20026;-73
2023/05/16 04:43:47;;;;;;;8.57;1.88;;;10.30;99.90;;;;;;5012082;28;20118;-73
2023/05/16 04:46:14;;;;;;;10.48;2.17;;;10.40;99.90;;;;;;5011873;28;20104;-74
2023/05/16 04:48:40;;;;;;;9.63;1.73;;;10.50;99.90;;;;;;5011552;28;20482;-75
2023/05/16 04:51:06;;;;;;;8.93;1.73;;;10.60;99.90;;;;;;5012132;28;20108;-74
2023/05/16 04:53:32;;;;;;;7.05;1.48;;;10.70;99.90;;;;;;5011611;28;20112;-74
2023/05/16 04:55:59;;;;;;;10.15;1.95;;;10.70;99.90;;;;;;5009963;28;20444;-75
2023/05/16 04:58:24;;;;;;;11.52;2.72;;;10.80;99.90;;;;;;5011801;28;20080;-75
2023/05/16 05:00:51;;;;;;;7.28;1.60;;;10.90;99.90;;;;;;5012761;28;20030;-77
2023/05/16 05:03:17;;;;;;;5.78;1.73;;;10.90;99.90;;;;;;5011610;28;20064;-75
2023/05/16 05:05:42;;;;;;;11.75;2.33;;;11.00;99.90;;;;;;5011471;28;20492;-75
2023/05/16 05:08:08;;;;;;;6.10;1.95;;;11.00;99.90;;;;;;5011631;28;20034;-75
2023/05/16 05:10:34;;;;;;;9.32;1.60;;;11.00;99.90;;;;;;5010977;28;20482;-74
2023/05/16 05:13:00;;;;;;;7.07;1.88;;;11.10;99.90;;;;;;5011647;28;20030;-74
2023/05/16 05:15:25;;;;;;;9.45;2.25;;;11.10;99.90;;;;;;5011539;28;20099;-74
2023/05/16 05:17:51;;;;;;;13.07;2.22;;;11.10;99.90;;;;;;5010220;28;20038;-74
2023/05/16 05:20:17;;;;;;;8.15;2.00;;;11.10;99.90;;;;;;5010900;28;20036;-73
2023/05/16 05:22:42;;;;;;;9.52;2.00;;;11.10;99.90;;;;;;5009681;28;20038;-76
2023/05/16 05:25:08;;;;;;;7.97;1.52;;;11.10;99.90;;;;;;5010429;28;20026;-76
2023/05/16 05:27:34;;;;;;;7.90;1.35;;;11.20;99.90;;;;;;5010627;28;20056;-73
2023/05/16 05:29:59;;;;;;;12.77;1.80;;;11.30;99.90;;;;;;5011013;28;20022;-73
2023/05/16 05:32:25;;;;;;;6.75;2.08;;;11.60;99.90;;;;;;5024966;28;20336;-73
2023/05/16 05:34:51;;;;;;;9.13;1.98;;;11.80;99.90;;;;;;5011176;28;20029;-73
2023/05/16 05:37:17;;;;;;;13.25;1.77;;;11.80;99.90;;;;;;5011103;28;20037;-76
2023/05/16 05:39:42;;;;;;;11.52;2.55;;;11.90;99.90;;;;;;4961437;28;1075128;-77
2023/05/16 05:42:08;;;;;;;8.40;1.70;;;12.00;99.90;;;;;;5001156;28;20061;-73
2023/05/16 05:44:34;;;;;;;12.15;2.65;;;12.10;99.90;;;;;;5011651;28;20069;-73
2023/05/16 05:46:59;;;;;;;12.48;2.20;;;12.10;99.90;;;;;;5018202;28;20033;-72
2023/05/16 05:49:26;;;;;;;10.27;2.08;;;12.20;99.90;;;;;;5029752;28;20025;-74
2023/05/16 05:51:52;;;;;;;8.18;1.63;;;12.20;99.90;;;;;;5012690;28;20029;-73
2023/05/16 05:54:20;;;;;;;8.20;1.85;;;12.20;99.90;;;;;;5011581;28;20467;-74
2023/05/16 05:56:46;;;;;;;9.73;1.40;;;12.30;99.90;;;;;;5026853;28;20056;-72
2023/05/16 05:59:12;;;;;;;9.02;1.65;;;12.80;99.90;;;;;;5010574;28;20034;-74
2023/05/16 06:01:38;;;;;;;6.38;1.25;;;13.60;99.90;;;;;;5007981;28;20041;-75
2023/05/16 06:04:04;;;;;;;8.93;1.75;;;14.00;99.90;;;;;;5004099;28;20041;-76
2023/05/16 06:06:30;;;;;;;9.05;1.30;;;14.50;99.90;;;;;;5006075;28;20094;-77
2023/05/16 06:08:56;;;;;;;10.57;1.40;;;14.60;99.90;;;;;;4999038;28;20039;-74
2023/05/16 06:11:22;;;;;;;6.22;1.10;;;14.70;99.90;;;;;;5002865;28;20102;-73
2023/05/16 06:13:47;;;;;;;6.43;1.08;;;14.70;99.90;;;;;;5007037;28;20030;-75
2023/05/16 06:16:13;;;;;;;9.02;1.25;;;14.60;99.90;;;;;;5003636;28;20038;-75
2023/05/16 06:18:39;;;;;;;6.07;1.45;;;14.50;99.90;;;;;;5002105;28;20022;-75
2023/05/16 06:21:05;;;;;;;7.88;2.70;;;14.40;99.90;;;;;;5003013;28;20026;-73
2023/05/16 06:23:31;;;;;;;15.10;3.42;;;14.30;99.90;;;;;;4999981;28;20018;-73
2023/05/16 06:25:57;;;;;;;12.80;3.20;;;14.30;99.90;;;;;;5002172;28;20034;-73
2023/05/16 06:28:23;;;;;;;12.55;4.05;;;14.30;99.90;;;;;;5001346;28;20500;-77
2023/05/16 06:30:50;;;;;;;8.27;2.63;;;14.40;99.90;;;;;;5011973;28;20505;-74
2023/05/16 06:33:19;;;;;;;16.10;4.60;;;14.50;99.90;;;;;;5003105;28;20031;-74
2023/05/16 06:35:45;;;;;;;8.65;2.35;;;14.40;99.90;;;;;;5007900;28;20060;-72
2023/05/16 06:38:10;;;;;;;5.78;2.13;;;14.50;99.90;;;;;;5018045;28;20072;-76
2023/05/16 06:40:36;;;;;;;10.60;2.10;;;14.70;99.90;;;;;;5006131;28;20021;-76
2023/05/16 06:43:02;;;;;;;10.52;2.63;;;15.10;99.90;;;;;;5005232;28;20018;-73
2023/05/16 06:45:28;;;;;;;8.57;1.80;;;16.30;99.90;;;;;;5008167;28;20084;-75
2023/05/16 06:47:54;;;;;;;8.05;2.25;;;16.90;98.60;;;;;;5005721;28;20045;-76
2023/05/16 06:50:20;;;;;;;8.73;2.10;;;16.60;98.50;;;;;;5004264;28;20053;-73
2023/05/16 06:52:45;;;;;;;8.30;1.80;;;16.40;99.00;;;;;;5004728;28;20027;-75
2023/05/16 06:55:11;;;;;;;9.23;1.60;;;16.70;98.50;;;;;;5004112;28;20113;-72
2023/05/16 06:57:37;;;;;;;4.93;1.20;;;17.10;98.10;;;;;;5005164;28;20030;-73
2023/05/16 07:00:03;;;;;;;4.80;1.20;;;17.20;97.60;;;;;;5006714;28;20038;-72
2023/05/16 07:02:28;;;;;;;8.15;1.17;;;17.30;97.40;;;;;;5005744;28;20543;-72
2023/05/16 07:04:54;;;;;;;7.53;1.33;;;17.40;97.20;;;;;;5002140;28;20057;-72
2023/05/16 07:07:20;;;;;;;6.90;1.63;;;17.50;97.40;;;;;;5009317;28;21969;-73
2023/05/16 07:09:45;;;;;;;8.88;1.67;;;18.10;97.10;;;;;;5002725;28;20025;-73
2023/05/16 07:12:11;;;;;;;7.93;1.58;;;18.60;96.40;;;;;;5005728;28;20027;-72
2023/05/16 07:14:36;;;;;;;9.65;1.83;;;18.60;95.50;;;;;;5008253;28;20092;-73
2023/05/16 07:17:02;;;;;;;8.73;2.10;;;18.20;95.90;;;;;;5001420;28;20057;-73
2023/05/16 07:19:28;;;;;;;14.07;3.45;;;17.90;96.60;;;;;;5002761;28;20479;-72
2023/05/16 07:21:53;;;;;;;10.95;3.28;;;17.80;96.50;;;;;;5002845;28;20032;-72
2023/05/16 07:24:19;;;;;;;10.38;2.30;;;18.20;96.30;;;;;;5000158;28;20379;-73
2023/05/16 07:26:44;;;;;;;10.02;1.55;;;18.30;95.60;;;;;;5003156;28;20084;-74
2023/05/16 07:29:11;;;;;;;12.15;3.17;;;17.80;96.00;;;;;;5006401;28;20033;-73
2023/05/16 07:31:36;;;;;;;12.57;2.70;;;17.00;96.70;;;;;;5001863;28;20077;-73
2023/05/16 07:34:02;;;;;;;9.50;2.60;;;16.60;97.50;;;;;;5006428;28;20026;-73
2023/05/16 07:36:28;;;;;;;5.15;1.60;;;16.30;98.00;;;;;;5002397;28;20477;-73
2023/05/16 07:38:53;;;;;;;8.00;2.08;;;16.00;98.30;;;;;;5000920;28;20054;-73
2023/05/16 07:41:20;;;;;;;9.35;2.45;;;15.80;98.30;;;;;;4993507;28;20080;-73
2023/05/16 07:43:46;;;;;;;10.18;2.03;;;15.90;98.60;;;;;;5009189;28;20030;-73
2023/05/16 07:46:11;;;;;;;10.35;2.28;;;16.20;98.90;;;;;;5011955;28;20030;-73
2023/05/16 07:48:37;;;;;;;8.18;1.60;;;16.70;98.30;;;;;;5013156;28;20034;-73
2023/05/16 07:51:02;;;;;;;7.95;2.20;;;17.20;97.60;;;;;;5012474;28;20022;-73
2023/05/16 07:53:28;;;;;;;9.68;2.60;;;17.10;97.40;;;;;;5012725;28;20037;-73
2023/05/16 07:55:54;;;;;;;10.80;2.90;;;17.10;97.50;;;;;;5014722;28;20072;-72
2023/05/16 07:58:19;;;;;;;6.97;1.70;;;17.00;97.70;;;;;;5022780;28;20041;-73
2023/05/16 08:00:45;;;;;;;7.50;1.73;;;17.20;97.00;;;;;;5012292;28;20410;-74
2023/05/16 08:03:10;;;;;;;6.03;1.35;;;17.30;96.80;;;;;;5012473;28;20034;-73
2023/05/16 08:05:36;;;;;;;5.53;1.40;;;17.10;96.60;;;;;;5008458;28;20485;-75
2023/05/16 08:08:01;;;;;;;9.30;1.83;;;17.00;97.20;;;;;;5005334;28;20100;-76
2023/05/16 08:10:27;;;;;;;12.85;1.95;;;17.10;97.00;;;;;;5008393;28;20034;-74
2023/05/16 08:12:53;;;;;;;6.25;1.48;;;17.90;96.20;;;;;;5010617;28;20038;-74
2023/05/16 08:15:19;;;;;;;7.35;1.52;;;18.50;95.50;;;;;;5013154;28;20029;-73
2023/05/16 08:17:44;;;;;;;7.82;1.80;;;18.70;95.00;;;;;;5025358;28;20098;-76
2023/05/16 08:20:11;;;;;;;5.85;1.10;;;18.50;95.10;;;;;;5029510;28;20048;-74
2023/05/16 08:22:36;;;;;;;7.03;1.83;;;18.60;94.80;;;;;;5029110;28;20021;-72
2023/05/16 08:25:02;;;;;;;3.25;1.33;;;19.60;94.20;;;;;;5019632;28;20029;-76
2023/05/16 08:27:28;;;;;;;11.15;1.73;;;20.20;92.90;;;;;;5021587;28;20533;-74
2023/05/16 08:29:53;;;;;;;6.85;1.30;;;20.40;92.80;;;;;;5020843;28;20394;-74
2023/05/16 08:32:20;;;;;;;4.13;1.17;;;20.80;91.70;;;;;;5011723;28;20034;-72
2023/05/16 08:34:46;;;;;;;5.65;1.10;;;21.50;91.10;;;;;;5019365;28;20146;-73
2023/05/16 08:37:12;;;;;;;5.25;1.33;;;21.60;91.30;;;;;;5024063;28;20570;-73
2023/05/16 08:39:38;;;;;;;6.82;1.52;;;21.20;91.30;;;;;;5024863;28;20053;-73
2023/05/16 08:42:04;;;;;;;5.93;1.30;;;21.30;91.20;;;;;;5014724;28;20041;-73
2023/05/16 08:44:30;;;;;;;8.95;1.10;;;22.10;90.30;;;;;;5010389;28;20029;-73
2023/05/16 08:46:57;;;;;;;7.68;1.40;;;22.60;89.10;;;;;;5012468;28;20034;-73
2023/05/16 08:49:26;;;;;;;8.52;1.58;;;22.90;88.20;;;;;;5014006;28;20131;-72
2023/05/16 08:51:57;;;;;;;7.65;1.60;;;23.80;87.30;;;;;;5017030;28;20030;-73
2023/05/16 08:54:23;;;;;;;5.28;1.30;;;24.60;84.20;;;;;;5019130;28;20089;-73
2023/05/16 08:56:49;;;;;;;7.43;1.55;;;24.30;82.20;;;;;;5024541;28;20029;-73
2023/05/16 08:59:15;;;;;;;6.82;2.33;;;23.80;81.90;;;;;;5021399;28;20018;-73
2023/05/16 09:01:41;;;;;;;9.07;2.65;;;23.70;82.70;;;;;;5018060;28;20049;-72
2023/05/16 09:04:08;;;;;;;9.35;3.58;;;24.10;81.50;;;;;;5008553;28;20038;-72
2023/05/16 09:06:35;;;;;;;9.82;3.97;;;24.00;80.70;;;;;;5014539;28;20433;-74
2023/05/16 09:09:01;;;;;;;12.70;2.58;;;24.30;81.90;;;;;;5021373;28;20041;-75
2023/05/16 09:11:27;;;;;;;7.47;2.88;;;25.10;81.30;;;;;;5022217;28;20060;-72
2023/05/16 09:13:53;;;;;;;11.85;2.67;;;25.40;80.30;;;;;;5017332;28;20105;-75
2023/05/16 09:16:19;;;;;;;12.32;2.70;;;24.90;80.20;;;;;;5026319;28;20610;-72
2023/05/16 09:18:59;;;;;;;7.85;2.15;;;24.20;81.20;;;;;;5019235;28;20030;-76
2023/05/16 09:21:30;;;;;;;8.30;1.88;;;23.70;81.00;;;;;;5009791;28;20037;-73
2023/05/16 09:24:01;;;;;;;10.70;2.67;;;23.40;82.20;;;;;;5017903;28;20064;-73
2023/05/16 09:26:27;;;;;;;5.15;1.65;;;23.80;82.50;;;;;;5019898;28;20030;-73
2023/05/16 09:28:54;;;;;;;6.95;1.90;;;24.50;80.90;;;;;;5014994;28;20113;-74
2023/05/16 09:31:20;;;;;;;11.00;2.42;;;25.40;80.10;;;;;;5015118;28;20017;-73
2023/05/16 09:33:47;;;;;;;5.57;1.67;;;25.40;79.90;;;;;;5024154;28;20036;-73
2023/05/16 09:36:14;;;;;;;7.82;1.70;;;24.80;79.60;;;;;;5018495;28;20532;-75
2023/05/16 09:38:40;;;;;;;10.27;1.85;;;24.40;81.30;;;;;;5016564;28;20384;-72
2023/05/16 09:41:09;;;;;;;5.45;1.50;;;24.80;79.70;;;;;;5030026;28;20036;-73
2023/05/16 09:43:38;;;;;;;8.30;2.13;;;26.00;78.20;;;;;;5025039;28;20482;-74
2023/05/16 09:46:04;;;;;;;7.93;1.88;;;26.70;76.40;;;;;;5026656;28;20033;-74
2023/05/16 09:48:31;;;;;;;9.70;2.78;;;27.40;74.00;;;;;;5024703;28;20044;-73
2023/05/16 09:51:01;;;;;;;7.93;1.90;;;27.80;73.20;;;;;;5024586;28;20037;-75
2023/05/16 09:53:32;;;;;;;8.73;2.08;;;28.10;72.50;;;;;;5022345;28;20030;-75
2023/05/16 09:56:03;;;;;;;7.43;1.33;;;28.30;74.00;;;;;;5016643;28;20065;-73
2023/05/16 09:58:31;;;;;;;6.45;1.70;;;28.00;73.20;;;;;;5025791;28;20041;-74
2023/05/16 10:00:57;;;;;;;10.27;1.85;;;27.10;74.20;;;;;;5013733;28;20091;-73
2023/05/16 10:03:23;;;;;;;9.23;1.75;;;26.30;75.30;;;;;;5019828;28;20049;-73
2023/05/16 10:05:49;;;;;;;4.78;1.38;;;26.00;75.40;;;;;;5012427;28;20033;-74
2023/05/16 10:08:15;;;;;;;6.47;1.55;;;26.00;75.90;;;;;;5032716;28;20041;-76
2023/05/16 10:10:41;;;;;;;6.85;1.40;;;25.70;77.00;;;;;;5022031;28;20013;-73
2023/05/16 10:13:10;;;;;;;7.72;1.48;;;25.70;75.90;;;;;;5018896;28;20091;-73
2023/05/16 10:15:37;;;;;;;5.28;1.67;;;25.30;76.10;;;;;;5019450;28;20382;-72
2023/05/16 10:18:03;;;;;;;8.13;1.63;;;25.60;76.30;;;;;;5015467;28;20390;-75
2023/05/16 10:20:29;;;;;;;9.13;2.00;;;25.60;76.20;;;;;;5024768;28;20029;-73
2023/05/16 10:22:56;;;;;;;5.18;1.58;;;26.30;75.10;;;;;;5028392;28;20030;-75
2023/05/16 10:25:32;;;;;;;6.22;1.60;;;26.50;75.30;;;;;;5050266;28;20055;-76
2023/05/16 10:27:58;;;;;;;6.32;1.90;;;26.30;75.90;;;;;;5019997;28;20073;-74
2023/05/16 10:30:24;;;;;;;7.68;1.35;;;26.20;75.30;;;;;;5031649;28;20099;-74
2023/05/16 10:32:50;;;;;;;7.10;1.13;;;26.10;74.70;;;;;;5018662;28;20103;-74
2023/05/16 10:35:16;;;;;;;5.47;1.48;;;25.80;75.30;;;;;;5024461;28;20037;-76
2023/05/16 10:37:43;;;;;;;6.57;1.58;;;25.70;74.30;;;;;;5022300;28;20049;-73
2023/05/16 10:40:09;;;;;;;7.68;1.48;;;26.30;75.00;;;;;;5021604;28;20383;-72
2023/05/16 10:42:35;;;;;;;7.55;1.73;;;26.70;74.40;;;;;;5030560;28;20018;-73
2023/05/16 10:45:17;;;;;;;6.85;1.55;;;26.30;75.00;;;;;;5021419;28;20034;-73
2023/05/16 10:47:52;;;;;;;7.32;1.40;;;26.60;74.70;;;;;;5021526;28;20467;-73
2023/05/16 10:50:51;;;;;;;5.57;1.25;;;27.20;74.00;;;;;;5030914;28;20025;-73
2023/05/16 10:53:22;;;;;;;9.40;1.50;;;26.80;73.50;;;;;;5012461;28;20479;-73
2023/05/16 10:56:03;;;;;;;6.22;1.33;;;27.30;73.30;;;;;;5020943;28;20042;-73
2023/05/16 10:58:32;;;;;;;7.40;1.75;;;28.20;71.80;;;;;;5029217;28;20061;-73
2023/05/16 11:01:20;;;;;;;6.05;1.27;;;28.90;70.50;;;;;;5027739;28;20075;-73
2023/05/16 11:06:26;;;;;;;4.90;1.20;;;29.80;69.60;;;;;;5015794;28;20121;-73
2023/05/16 11:09:09;;;;;;;8.20;1.65;;;30.10;68.60;;;;;;5020297;28;20120;-73
2023/05/16 11:12:01;;;;;;;6.45;1.58;;;30.30;68.70;;;;;;5027255;28;20410;-73
2023/05/16 11:14:28;;;;;;;;;;;30.40;68.50;;;;;;5018783;28;20539;-74
2023/05/16 11:17:12;;;;;;;7.25;1.23;;;30.30;67.30;;;;;;5016314;28;19948;-75
2023/05/16 11:19:46;;;;;;;4.22;1.35;;;30.00;67.90;;;;;;5016342;28;20037;-75
2023/05/16 11:22:23;;;;;;;5.25;1.35;;;30.00;68.10;;;;;;5018708;28;20034;-73
2023/05/16 11:24:48;;;;;;;10.63;1.55;;;30.00;67.80;;;;;;5015774;28;20165;-76
2023/05/16 11:27:23;;;;;;;8.07;1.35;;;29.50;67.50;;;;;;5009020;28;20100;-75
2023/05/16 11:29:50;;;;;;;6.53;1.20;;;29.10;67.80;;;;;;5015956;28;20413;-73
2023/05/16 11:32:19;;;;;;;7.80;1.52;;;28.60;68.30;;;;;;5017147;28;20433;-73
2023/05/16 11:34:47;;;;;;;6.15;1.48;;;28.20;68.50;;;;;;5003780;28;20014;-72
2023/05/16 11:37:13;;;;;;;4.25;1.05;;;27.80;68.50;;;;;;5015340;28;20054;-76
2023/05/16 11:39:39;;;;;;;4.22;1.15;;;27.30;69.40;;;;;;5010722;28;20045;-73
2023/05/16 11:42:05;;;;;;;6.57;1.80;;;27.30;69.80;;;;;;5016503;28;20029;-74
2023/05/16 11:44:31;;;;;;;5.80;1.13;;;27.90;69.20;;;;;;5030511;28;20017;-75
2023/05/16 11:46:57;;;;;;;8.88;1.48;;;28.60;67.80;;;;;;5031306;28;20025;-72
2023/05/16 11:49:22;;;;;;;5.40;1.15;;;28.90;67.30;;;;;;5024152;28;20088;-73
2023/05/16 11:51:50;;;;;;;6.07;1.10;;;28.70;67.90;;;;;;5015446;28;20115;-73
2023/05/16 11:54:18;;;;;;;8.45;1.27;;;28.80;67.60;;;;;;5017404;28;20049;-72
2023/05/16 11:56:44;;;;;;;3.25;0.98;;;29.30;67.20;;;;;;5018507;28;20567;-73
2023/05/16 11:59:10;;;;;;;5.03;1.00;;;29.80;65.40;;;;;;5028619;28;20108;-73
2023/05/16 12:01:37;;;;;;;6.45;1.20;;;29.60;66.50;;;;;;5009994;28;20379;-74
2023/05/16 12:04:13;;;;;;;5.13;1.13;;;29.60;66.50;;;;;;5016685;28;20022;-73
2023/05/16 12:06:39;;;;;;;5.57;1.23;;;29.90;65.00;;;;;;5001854;28;20026;-74
2023/05/16 12:09:09;;;;;;;5.72;1.42;;;30.20;64.30;;;;;;5013888;28;20038;-73
2023/05/16 12:11:39;;;;;;;6.68;1.25;;;30.40;65.30;;;;;;5021456;28;20500;-73
2023/05/16 12:14:10;;;;;;;6.43;1.52;;;30.60;62.10;;;;;;5016604;28;20030;-75
2023/05/16 12:16:37;;;;;;;5.28;1.08;;;30.90;62.90;;;;;;5019187;28;20450;-74
2023/05/16 12:19:07;;;;;;;4.55;1.30;;;31.20;62.30;;;;;;5030538;28;20029;-73
2023/05/16 12:21:32;;;;;;;9.50;1.35;;;31.10;61.40;;;;;;5025545;28;20030;-72
2023/05/16 12:23:58;;;;;;;4.30;1.00;;;31.00;61.90;;;;;;5022396;28;20072;-73
2023/05/16 12:26:32;;;;;;;6.93;2.30;;;31.00;61.40;;;;;;5016228;28;20032;-72
2023/05/16 12:29:04;;;;;;;7.40;1.80;;;31.00;61.10;;;;;;5014628;28;20225;-72
2023/05/16 12:31:30;;;;;;;5.45;1.92;;;30.60;61.10;;;;;;5014747;28;20054;-73
2023/05/16 12:33:57;;;;;;;7.07;2.05;;;30.00;61.50;;;;;;5007852;28;20053;-72
2023/05/16 12:36:25;;;;;;;7.15;1.70;;;29.40;62.40;;;;;;5014320;28;20036;-72
2023/05/16 12:38:51;;;;;;;8.13;1.48;;;28.90;62.50;;;;;;5013428;28;20075;-72
2023/05/16 12:41:21;;;;;;;7.45;1.35;;;28.50;63.10;;;;;;5014439;28;20030;-73
2023/05/16 12:43:47;;;;;;;6.32;1.95;;;28.30;63.50;;;;;;5014431;28;20418;-75
2023/05/16 12:46:13;;;;;;;7.18;1.80;;;28.10;63.00;;;;;;5015408;28;20026;-72
2023/05/16 12:48:41;;;;;;;6.28;1.58;;;27.70;63.10;;;;;;5015455;28;20048;-75
2023/05/16 12:51:15;;;;;;;6.60;1.27;;;27.20;62.20;;;;;;5028944;28;20068;-76